Time;durP1;ratioP1;P1;durP2;ratioP2;P2;SDS_P1;SDS_P2;PMS_P1;PMS_P2;Temp;Humidity;BMP_temperature;BMP_pressure;BME280_temperature;BME280_humidity;BME280_pressure;Samples;Min_cycle;Max_cycle;Signal;HPM_P1;HPM_P2
2022/05/25 00:01:04;;;;;;;3.97;3.35;;;21.60;99.90;;;;;;5073777;28;20025;-63
2022/05/25 00:03:32;;;;;;;3.35;3.05;;;21.50;99.90;;;;;;5073356;28;20361;-62
2022/05/25 00:05:59;;;;;;;2.85;2.55;;;21.50;99.90;;;;;;5073710;28;20036;-62
2022/05/25 00:08:25;;;;;;;4.18;2.92;;;21.50;99.90;;;;;;5073633;28;20030;-63
2022/05/25 00:10:51;;;;;;;3.17;2.85;;;21.50;99.90;;;;;;5073648;28;20016;-63
2022/05/25 00:13:17;;;;;;;2.72;2.40;;;21.40;99.90;;;;;;5073424;28;20024;-63
2022/05/25 00:15:42;;;;;;;5.13;2.78;;;21.40;99.90;;;;;;5073715;28;20021;-62
2022/05/25 00:18:08;;;;;;;4.15;2.50;;;21.30;99.90;;;;;;5073006;28;20502;-62
2022/05/25 00:20:35;;;;;;;3.40;2.35;;;21.20;99.90;;;;;;5073347;28;20020;-63
2022/05/25 00:23:02;;;;;;;3.50;2.08;;;21.20;99.90;;;;;;5073431;28;20052;-62
2022/05/25 00:25:33;;;;;;;2.08;1.80;;;21.30;99.90;;;;;;5073200;28;20028;-62
2022/05/25 00:28:00;;;;;;;4.90;2.40;;;21.30;99.90;;;;;;5073583;28;20032;-62
2022/05/25 00:30:26;;;;;;;2.08;1.80;;;21.20;99.80;;;;;;5073386;28;20044;-63
2022/05/25 00:32:54;;;;;;;3.55;2.13;;;21.20;99.90;;;;;;5073216;28;20417;-62
2022/05/25 00:35:21;;;;;;;3.40;2.30;;;21.20;99.90;;;;;;5073191;28;20027;-63
2022/05/25 00:37:47;;;;;;;2.85;2.53;;;21.20;99.90;;;;;;5073179;28;20023;-62
2022/05/25 00:40:20;;;;;;;2.80;2.45;;;21.10;99.90;;;;;;5073076;28;20017;-62
2022/05/25 00:42:46;;;;;;;5.72;2.33;;;21.10;99.90;;;;;;5073484;28;20378;-62
2022/05/25 00:45:13;;;;;;;2.80;2.33;;;21.10;99.90;;;;;;5072887;28;20033;-62
2022/05/25 00:47:41;;;;;;;2.00;1.65;;;21.00;99.90;;;;;;5073336;28;20063;-63
2022/05/25 00:50:11;;;;;;;2.50;1.90;;;21.00;99.90;;;;;;5073379;28;20039;-63
2022/05/25 00:52:40;;;;;;;3.13;2.40;;;21.00;99.90;;;;;;5073083;28;20025;-62
2022/05/25 00:55:08;;;;;;;2.97;2.40;;;21.00;99.90;;;;;;5072983;28;20028;-62
2022/05/25 00:57:40;;;;;;;2.58;2.13;;;21.00;99.90;;;;;;5072921;28;20029;-62
2022/05/25 01:00:08;;;;;;;3.35;2.50;;;21.00;99.90;;;;;;5072729;28;20058;-62
2022/05/25 01:02:37;;;;;;;3.60;2.72;;;21.10;99.90;;;;;;5073002;28;20107;-62
2022/05/25 01:05:04;;;;;;;2.65;2.35;;;21.00;99.90;;;;;;5072949;28;20459;-62
2022/05/25 01:07:32;;;;;;;2.42;2.22;;;21.00;99.90;;;;;;5072934;28;20059;-62
2022/05/25 01:10:06;;;;;;;3.83;2.55;;;21.00;99.90;;;;;;5072947;28;20040;-62
2022/05/25 01:12:56;;;;;;;3.33;2.40;;;21.00;99.90;;;;;;5073012;28;20024;-62
2022/05/25 01:15:45;;;;;;;2.90;2.60;;;20.90;99.90;;;;;;5072651;28;20494;-61
2022/05/25 01:18:55;;;;;;;3.92;3.53;;;20.90;99.90;;;;;;5072698;28;20387;-61
2022/05/25 01:21:47;;;;;;;3.40;2.70;;;20.80;99.90;;;;;;4971965;28;20485;-64
2022/05/25 01:24:25;;;;;;;6.20;3.20;;;20.70;99.90;;;;;;4971992;28;20073;-62
2022/05/25 01:26:59;;;;;;;3.67;3.08;;;20.60;99.90;;;;;;5045347;28;20407;-61
2022/05/25 01:29:47;;;;;;;5.00;3.15;;;20.60;99.90;;;;;;5072604;28;20024;-62
2022/05/25 01:32:46;;;;;;;4.03;2.50;;;20.50;99.90;;;;;;5072786;28;20044;-62
2022/05/25 01:35:25;;;;;;;5.03;3.50;;;20.40;99.90;;;;;;5072827;28;20056;-61
2022/05/25 01:37:57;;;;;;;2.75;2.50;;;20.50;99.90;;;;;;5072581;28;20044;-61
2022/05/25 01:40:42;;;;;;;3.97;2.83;;;20.40;99.90;;;;;;5072540;28;20025;-63
2022/05/25 01:43:38;;;;;;;4.22;3.30;;;20.40;99.90;;;;;;5072718;28;20040;-62
2022/05/25 01:46:16;;;;;;;2.65;2.45;;;20.40;99.90;;;;;;5075366;28;20020;-62
2022/05/25 01:48:44;;;;;;;3.75;3.08;;;20.40;99.90;;;;;;5076099;28;20601;-61
2022/05/25 01:51:19;;;;;;;2.55;2.35;;;20.40;99.90;;;;;;5076405;28;20025;-61
2022/05/25 01:53:51;;;;;;;2.50;2.30;;;20.30;99.90;;;;;;5076365;28;20031;-61
2022/05/25 01:56:20;;;;;;;4.03;2.45;;;20.30;99.90;;;;;;5076272;28;20035;-63
2022/05/25 01:58:50;;;;;;;2.60;2.30;;;20.30;99.90;;;;;;5075584;28;20044;-62
2022/05/25 02:01:15;;;;;;;5.35;2.78;;;20.30;99.90;;;;;;5075876;28;20543;-62
2022/05/25 02:06:46;;;;;;;3.53;2.50;;;20.30;99.90;;;;;;5075874;28;20043;-62
2022/05/25 02:09:21;;;;;;;2.58;2.30;;;20.30;99.90;;;;;;5075858;28;20104;-62
2022/05/25 02:11:56;;;;;;;4.22;2.70;;;20.30;99.90;;;;;;5075642;28;20020;-63
2022/05/25 02:14:22;;;;;;;3.60;2.75;;;20.30;99.90;;;;;;5075816;28;20025;-64
2022/05/25 02:17:09;;;;;;;4.70;2.95;;;20.30;99.90;;;;;;5075743;28;20524;-62
2022/05/25 02:19:43;;;;;;;3.30;2.72;;;20.10;99.90;;;;;;5075790;28;20036;-63
2022/05/25 02:22:12;;;;;;;4.78;2.92;;;20.10;99.90;;;;;;5075643;28;20025;-63
2022/05/25 02:24:54;;;;;;;3.03;2.67;;;19.90;99.90;;;;;;5075436;28;20028;-62
2022/05/25 02:27:46;;;;;;;5.78;3.33;;;20.00;99.90;;;;;;5075354;28;20376;-63
2022/05/25 02:30:21;;;;;;;3.20;2.70;;;19.80;99.90;;;;;;5070849;28;20036;-63
2022/05/25 02:32:49;;;;;;;3.35;2.80;;;19.80;99.90;;;;;;5075293;28;20021;-61
2022/05/25 02:35:16;;;;;;;4.32;2.97;;;19.80;99.90;;;;;;5075297;28;20017;-62
2022/05/25 02:37:43;;;;;;;3.22;2.35;;;19.80;99.90;;;;;;5075529;28;20383;-62
2022/05/25 02:40:10;;;;;;;3.95;2.53;;;19.70;99.90;;;;;;5075043;28;20055;-63
2022/05/25 02:42:41;;;;;;;3.17;2.30;;;19.70;99.90;;;;;;5075319;28;20352;-62
2022/05/25 02:45:10;;;;;;;2.85;2.08;;;19.70;99.90;;;;;;5075163;28;20020;-61
2022/05/25 02:47:37;;;;;;;2.60;2.03;;;19.70;99.90;;;;;;5074972;28;20040;-62
2022/05/25 02:50:03;;;;;;;2.28;1.98;;;19.70;99.90;;;;;;5075031;28;20028;-62
2022/05/25 02:52:29;;;;;;;3.55;2.38;;;19.80;99.90;;;;;;5075287;28;20387;-63
2022/05/25 02:54:55;;;;;;;3.53;2.50;;;19.80;99.90;;;;;;5075113;28;20021;-63
2022/05/25 02:57:20;;;;;;;2.88;2.40;;;19.80;99.90;;;;;;5073588;28;20090;-62
2022/05/25 02:59:46;;;;;;;3.05;2.20;;;19.80;99.90;;;;;;5074625;28;20075;-61
2022/05/25 03:02:12;;;;;;;2.90;2.50;;;19.80;99.90;;;;;;5074984;28;20025;-62
2022/05/25 03:04:40;;;;;;;5.28;3.05;;;19.80;99.90;;;;;;5074627;28;20044;-64
2022/05/25 03:07:07;;;;;;;3.72;2.58;;;19.80;99.90;;;;;;5074942;28;20054;-63
2022/05/25 03:09:36;;;;;;;2.80;2.60;;;19.70;99.90;;;;;;5074666;28;20025;-62
2022/05/25 03:12:03;;;;;;;3.15;2.50;;;19.70;99.90;;;;;;5074376;28;20060;-62
2022/05/25 03:14:29;;;;;;;3.75;2.25;;;19.60;99.90;;;;;;5074657;28;20023;-61
2022/05/25 03:16:55;;;;;;;2.80;2.50;;;19.50;99.90;;;;;;5074424;28;20020;-62
2022/05/25 03:19:21;;;;;;;2.05;1.85;;;19.50;99.90;;;;;;5074519;28;20028;-62
2022/05/25 03:21:47;;;;;;;4.20;2.65;;;19.60;99.90;;;;;;5074506;28;20020;-62
2022/05/25 03:24:14;;;;;;;2.20;2.00;;;19.50;99.90;;;;;;5074256;28;20029;-63
2022/05/25 03:26:40;;;;;;;2.63;1.83;;;19.50;99.90;;;;;;5073988;28;20077;-63
2022/05/25 03:29:06;;;;;;;3.85;2.20;;;19.60;99.90;;;;;;5074375;28;20029;-61
2022/05/25 03:31:32;;;;;;;4.00;2.88;;;19.60;99.90;;;;;;5074232;28;20020;-63
2022/05/25 03:33:58;;;;;;;3.65;2.30;;;19.60;99.90;;;;;;5074083;28;20052;-63
2022/05/25 03:36:24;;;;;;;3.72;2.60;;;19.60;99.90;;;;;;5074209;28;20024;-62
2022/05/25 03:38:49;;;;;;;5.43;2.75;;;19.50;99.90;;;;;;5074089;28;20025;-63
2022/05/25 03:41:17;;;;;;;2.30;2.10;;;19.50;99.90;;;;;;5073782;28;20021;-63
2022/05/25 03:43:44;;;;;;;2.20;2.00;;;19.50;99.90;;;;;;5073940;28;20020;-63
2022/05/25 03:46:10;;;;;;;4.28;2.38;;;19.60;99.90;;;;;;5073893;28;20115;-61
2022/05/25 03:48:35;;;;;;;2.25;2.03;;;19.60;99.90;;;;;;5073783;28;20100;-62
2022/05/25 03:51:01;;;;;;;3.00;2.00;;;19.70;99.90;;;;;;5073772;28;20070;-62
2022/05/25 03:53:27;;;;;;;2.75;2.17;;;19.70;99.90;;;;;;5073975;28;20374;-62
2022/05/25 03:55:53;;;;;;;2.53;2.10;;;19.70;99.90;;;;;;5073487;28;20021;-63
2022/05/25 03:58:18;;;;;;;2.30;1.88;;;19.70;99.90;;;;;;5073406;28;20413;-62
2022/05/25 04:00:44;;;;;;;3.30;2.53;;;19.70;99.90;;;;;;5073820;28;20098;-62
2022/05/25 04:03:15;;;;;;;8.25;5.93;;;19.80;99.90;;;;;;5073899;28;20017;-62
2022/05/25 04:05:42;;;;;;;5.53;4.10;;;19.70;99.90;;;;;;5073798;28;20031;-62
2022/05/25 04:08:08;;;;;;;6.13;4.60;;;19.70;99.90;;;;;;5073609;28;20055;-63
2022/05/25 04:10:34;;;;;;;4.35;3.78;;;19.80;99.90;;;;;;5073720;28;20027;-62
2022/05/25 04:13:01;;;;;;;3.67;3.25;;;19.80;99.90;;;;;;5074037;28;20069;-63
2022/05/25 04:15:29;;;;;;;4.25;2.80;;;19.90;99.90;;;;;;5073624;28;20020;-62
2022/05/25 04:17:55;;;;;;;5.13;3.03;;;20.00;99.90;;;;;;5073453;28;20471;-63
2022/05/25 04:20:24;;;;;;;3.53;2.60;;;20.00;99.90;;;;;;5073518;28;20025;-63
2022/05/25 04:22:50;;;;;;;4.00;2.90;;;20.10;99.90;;;;;;5073497;28;20025;-63
2022/05/25 04:25:18;;;;;;;3.47;3.13;;;20.10;99.90;;;;;;5073140;28;20016;-62
2022/05/25 04:27:47;;;;;;;3.00;2.70;;;20.20;99.90;;;;;;5073306;28;20100;-63
2022/05/25 04:30:16;;;;;;;4.68;3.10;;;20.30;99.90;;;;;;5073385;28;20390;-62
2022/05/25 04:32:42;;;;;;;5.22;3.00;;;20.30;99.90;;;;;;5073151;28;20443;-61
2022/05/25 04:35:09;;;;;;;3.58;2.65;;;20.30;99.90;;;;;;5073248;28;20021;-63
2022/05/25 04:37:52;;;;;;;2.95;2.17;;;20.40;99.90;;;;;;5073194;28;20021;-62
2022/05/25 04:40:21;;;;;;;3.13;2.33;;;20.50;99.90;;;;;;5073084;28;20050;-62
2022/05/25 04:42:48;;;;;;;3.45;2.50;;;20.60;99.90;;;;;;5073462;28;20406;-62
2022/05/25 04:45:14;;;;;;;2.78;2.17;;;20.60;99.90;;;;;;5073222;28;20013;-61
2022/05/25 04:47:41;;;;;;;3.58;2.20;;;20.60;99.90;;;;;;5073055;28;20021;-61
2022/05/25 04:50:08;;;;;;;2.05;1.90;;;20.70;99.90;;;;;;5073124;28;20028;-63
2022/05/25 04:52:36;;;;;;;2.80;2.22;;;20.70;99.70;;;;;;5072714;28;20024;-63
2022/05/25 04:55:02;;;;;;;4.47;2.70;;;20.80;99.20;;;;;;5072918;28;20020;-62
2022/05/25 04:57:28;;;;;;;3.03;2.40;;;20.90;98.80;;;;;;5055058;28;20394;-63
2022/05/25 04:59:58;;;;;;;3.33;2.22;;;20.80;98.50;;;;;;5072582;28;20057;-62
2022/05/25 05:02:25;;;;;;;4.90;2.70;;;20.90;98.70;;;;;;5067002;28;20388;-65
2022/05/25 05:04:51;;;;;;;5.00;3.10;;;20.90;98.50;;;;;;5051925;28;20399;-62
2022/05/25 05:07:17;;;;;;;5.68;2.90;;;20.90;98.60;;;;;;5052003;28;20096;-62
2022/05/25 05:09:45;;;;;;;4.03;2.53;;;21.00;98.60;;;;;;5050246;28;20052;-64
2022/05/25 05:12:13;;;;;;;3.65;2.60;;;21.00;98.80;;;;;;5052610;28;20017;-63
2022/05/25 05:14:39;;;;;;;4.13;2.90;;;21.10;98.50;;;;;;5051040;28;20036;-64
2022/05/25 05:17:07;;;;;;;3.03;2.58;;;21.20;98.20;;;;;;5049698;28;20021;-63
2022/05/25 05:19:33;;;;;;;5.13;2.40;;;21.30;98.10;;;;;;5053260;28;20391;-64
2022/05/25 05:21:59;;;;;;;3.30;2.38;;;21.30;98.40;;;;;;5056521;28;20032;-63
2022/05/25 05:24:26;;;;;;;5.50;2.28;;;21.40;97.70;;;;;;5056153;28;20361;-64
2022/05/25 05:26:52;;;;;;;4.28;2.42;;;21.50;97.30;;;;;;5054646;28;20400;-63
2022/05/25 05:29:18;;;;;;;4.10;2.40;;;21.50;97.10;;;;;;5054525;28;20029;-63
2022/05/25 05:31:44;;;;;;;3.88;2.80;;;21.60;97.20;;;;;;5055179;28;20017;-63
2022/05/25 05:34:10;;;;;;;2.72;2.20;;;21.70;97.30;;;;;;5055398;28;20025;-63
2022/05/25 05:36:47;;;;;;;2.55;2.35;;;21.70;97.30;;;;;;5055350;28;20025;-64
2022/05/25 05:39:17;;;;;;;3.90;2.40;;;21.80;97.20;;;;;;5069569;28;20029;-64
2022/05/25 05:41:50;;;;;;;4.25;2.28;;;22.00;97.20;;;;;;5094828;28;20028;-64
2022/05/25 05:44:21;;;;;;;2.55;2.20;;;22.10;95.70;;;;;;5060084;28;20021;-64
2022/05/25 05:46:49;;;;;;;3.88;2.42;;;22.10;96.20;;;;;;5062427;28;20064;-63
2022/05/25 05:49:15;;;;;;;3.20;2.65;;;22.20;95.00;;;;;;5062429;28;20098;-64
2022/05/25 05:51:41;;;;;;;2.90;2.35;;;22.30;95.80;;;;;;5053310;28;20479;-64
2022/05/25 05:54:07;;;;;;;8.43;3.38;;;22.30;97.30;;;;;;5037394;28;20391;-63
2022/05/25 05:56:34;;;;;;;4.63;2.50;;;22.40;97.70;;;;;;5053587;28;20025;-63
2022/05/25 05:59:00;;;;;;;5.43;2.67;;;22.40;97.90;;;;;;5054908;28;20113;-64
2022/05/25 06:01:26;;;;;;;3.75;2.47;;;22.50;97.10;;;;;;5058793;28;20104;-65
2022/05/25 06:03:52;;;;;;;2.50;2.25;;;22.70;97.40;;;;;;5059341;28;20115;-65
2022/05/25 06:06:18;;;;;;;3.88;2.22;;;22.80;97.30;;;;;;5064944;28;20551;-63
2022/05/25 06:08:46;;;;;;;4.60;2.53;;;23.00;96.70;;;;;;5068937;28;20437;-63
2022/05/25 06:11:16;;;;;;;4.55;2.72;;;23.10;95.80;;;;;;5053502;28;20077;-64
2022/05/25 06:13:42;;;;;;;4.43;2.67;;;23.20;94.90;;;;;;5052561;28;20503;-64
2022/05/25 06:21:36;;;;;;;4.00;2.70;;;23.60;93.70;;;;;;5055062;28;20044;-65
2022/05/25 06:24:03;;;;;;;4.13;2.50;;;23.70;93.90;;;;;;5052832;28;20021;-64
2022/05/25 06:26:30;;;;;;;2.67;2.28;;;23.90;93.50;;;;;;5049948;28;20515;-63
2022/05/25 06:29:00;;;;;;;6.07;2.90;;;24.00;92.00;;;;;;5050702;28;20688;-65
2022/05/25 06:31:27;;;;;;;4.05;2.63;;;24.20;90.70;;;;;;5058053;28;20494;-64
2022/05/25 06:33:54;;;;;;;3.65;2.17;;;24.20;90.50;;;;;;5060302;28;20031;-64
2022/05/25 06:36:26;;;;;;;5.38;2.53;;;24.40;90.40;;;;;;5062664;28;20110;-64
2022/05/25 06:38:54;;;;;;;3.58;2.25;;;24.50;89.40;;;;;;5061659;28;20101;-64
2022/05/25 06:41:20;;;;;;;2.83;2.10;;;24.70;90.10;;;;;;5060632;28;20361;-63
2022/05/25 06:43:46;;;;;;;3.42;2.13;;;24.90;90.80;;;;;;5068885;28;20437;-64
2022/05/25 06:46:13;;;;;;;4.53;2.58;;;25.20;89.80;;;;;;5054800;28;20021;-63
2022/05/25 06:48:39;;;;;;;5.32;2.58;;;25.30;88.80;;;;;;5074415;28;20116;-64
2022/05/25 06:51:13;;;;;;;3.03;2.40;;;25.40;84.20;;;;;;5072011;28;20063;-63
2022/05/25 06:53:39;;;;;;;2.50;2.30;;;25.60;85.30;;;;;;5054648;28;20049;-63
2022/05/25 06:56:05;;;;;;;2.58;2.38;;;25.70;87.00;;;;;;5063221;28;20058;-61
2022/05/25 06:58:33;;;;;;;3.55;2.67;;;25.90;87.30;;;;;;5056404;28;20053;-62
2022/05/25 07:00:58;;;;;;;5.88;2.70;;;26.20;84.20;;;;;;5047624;28;20040;-64
2022/05/25 07:03:24;;;;;;;3.50;2.53;;;26.30;84.90;;;;;;5045640;28;20021;-62
2022/05/25 07:05:50;;;;;;;4.10;2.60;;;26.50;83.30;;;;;;5045640;28;20074;-66
2022/05/25 07:08:17;;;;;;;5.30;2.72;;;26.70;84.60;;;;;;5063165;28;20037;-63
2022/05/25 07:10:45;;;;;;;3.38;2.40;;;26.80;79.80;;;;;;5069534;28;20035;-68
2022/05/25 07:13:16;;;;;;;4.07;2.60;;;27.00;83.30;;;;;;5059514;28;20016;-62
2022/05/25 07:15:42;;;;;;;4.22;2.72;;;27.20;81.60;;;;;;5050460;28;20025;-62
2022/05/25 07:18:08;;;;;;;3.95;2.42;;;27.50;79.00;;;;;;5049559;28;20522;-65
2022/05/25 07:20:34;;;;;;;3.05;2.00;;;27.60;76.60;;;;;;5081896;28;20035;-64
2022/05/25 07:23:00;;;;;;;3.47;2.25;;;28.00;79.90;;;;;;5076332;28;20029;-65
2022/05/25 07:25:26;;;;;;;5.93;2.58;;;28.50;75.40;;;;;;5070488;28;20017;-63
2022/05/25 07:27:52;;;;;;;3.80;2.00;;;29.80;68.80;;;;;;5069321;28;20025;-62
2022/05/25 07:30:18;;;;;;;4.25;2.42;;;31.90;64.70;;;;;;5069024;28;20085;-62
2022/05/25 07:32:46;;;;;;;5.88;2.40;;;33.50;54.90;;;;;;5070030;28;20021;-67
2022/05/25 07:35:15;;;;;;;4.72;2.25;;;34.60;49.60;;;;;;5073088;28;20044;-61
2022/05/25 07:37:44;;;;;;;3.80;2.30;;;35.30;47.20;;;;;;5091213;28;20055;-62
2022/05/25 07:40:40;;;;;;;5.95;2.30;;;36.00;49.50;;;;;;5091548;28;20028;-66
2022/05/25 07:43:13;;;;;;;3.97;2.17;;;36.60;45.10;;;;;;5074926;28;20036;-63
2022/05/25 07:45:39;;;;;;;2.92;2.20;;;37.10;43.60;;;;;;5093541;28;20020;-64
2022/05/25 07:48:05;;;;;;;3.92;2.20;;;37.50;43.40;;;;;;5081974;28;20035;-67
2022/05/25 07:50:32;;;;;;;5.78;2.70;;;37.90;41.50;;;;;;5073004;28;20017;-65
2022/05/25 07:52:59;;;;;;;3.53;1.98;;;38.20;43.00;;;;;;5073619;28;20016;-64
2022/05/25 07:55:25;;;;;;;3.25;2.10;;;38.50;41.60;;;;;;5070572;28;20378;-63
2022/05/25 07:57:51;;;;;;;4.05;2.22;;;38.70;41.50;;;;;;5068863;28;20021;-63
2022/05/25 08:00:19;;;;;;;6.07;2.38;;;39.20;41.00;;;;;;5068212;28;20044;-63
2022/05/25 08:05:46;;;;;;;5.03;2.60;;;39.30;39.40;;;;;;5070459;28;20027;-64
2022/05/25 08:08:24;;;;;;;7.43;2.83;;;39.00;39.90;;;;;;5071117;28;20020;-65
2022/05/25 08:11:13;;;;;;;4.82;2.75;;;39.00;40.70;;;;;;5071832;28;20020;-64
2022/05/25 08:13:42;;;;;;;5.75;2.58;;;39.20;39.90;;;;;;5072055;28;20021;-64
2022/05/25 08:16:08;;;;;;;4.70;2.40;;;39.40;40.30;;;;;;5071981;28;20016;-64
2022/05/25 08:18:34;;;;;;;3.95;2.45;;;39.50;40.10;;;;;;5071900;28;20025;-63
2022/05/25 08:21:00;;;;;;;4.43;2.17;;;39.60;40.60;;;;;;5073124;28;20437;-65
2022/05/25 08:23:26;;;;;;;5.72;2.60;;;39.80;40.60;;;;;;5065122;28;20021;-64
2022/05/25 08:25:52;;;;;;;4.28;2.35;;;39.90;40.90;;;;;;5060834;28;20116;-64
2022/05/25 08:28:18;;;;;;;4.28;2.45;;;40.30;39.30;;;;;;5051908;28;20103;-63
2022/05/25 08:30:45;;;;;;;3.88;2.13;;;40.70;40.00;;;;;;5033354;28;20025;-65
2022/05/25 08:33:11;;;;;;;3.17;1.98;;;40.80;38.10;;;;;;5051179;28;20117;-64
2022/05/25 08:35:37;;;;;;;4.05;2.08;;;40.90;37.90;;;;;;5053386;28;20631;-66
2022/05/25 08:38:03;;;;;;;4.78;1.90;;;40.90;38.20;;;;;;5060294;28;20031;-62
2022/05/25 08:40:31;;;;;;;3.58;1.90;;;40.80;38.60;;;;;;5055193;28;20027;-65
2022/05/25 08:43:47;;;;;;;4.80;2.03;;;41.00;38.40;;;;;;5055395;28;20104;-62
2022/05/25 08:46:19;;;;;;;3.60;1.90;;;41.20;38.30;;;;;;5040836;28;20068;-65
2022/05/25 08:48:45;;;;;;;;;;;40.80;39.10;;;;;;5049287;28;20025;-63
2022/05/25 08:51:15;;;;;;;6.80;2.47;;;40.80;38.90;;;;;;5051365;28;19959;-64
2022/05/25 08:53:41;;;;;;;2.58;1.85;;;40.50;39.30;;;;;;5060957;28;20029;-66
2022/05/25 08:56:36;;;;;;;4.45;1.80;;;40.70;37.60;;;;;;5054870;28;20025;-63
2022/05/25 08:59:21;;;;;;;3.35;2.13;;;41.10;39.30;;;;;;5055760;28;20057;-63
2022/05/25 09:02:02;;;;;;;2.72;2.08;;;40.40;37.70;;;;;;5062297;28;20086;-64
2022/05/25 09:04:51;;;;;;;4.18;2.38;;;39.90;38.50;;;;;;5068577;28;20009;-67
2022/05/25 09:07:45;;;;;;;4.43;2.20;;;38.40;38.40;;;;;;5054597;28;20028;-65
2022/05/25 09:10:12;;;;;;;6.13;2.33;;;37.80;40.60;;;;;;5061086;28;20371;-67
2022/05/25 09:12:49;;;;;;;3.30;2.33;;;37.40;39.60;;;;;;5074759;28;20100;-65
2022/05/25 09:15:32;;;;;;;4.22;2.78;;;38.20;40.40;;;;;;5064046;28;20029;-62
2022/05/25 09:18:09;;;;;;;5.00;2.30;;;39.20;38.90;;;;;;5067507;28;20044;-64
2022/05/25 09:20:44;;;;;;;3.17;1.98;;;39.80;39.10;;;;;;5069565;28;20048;-63
2022/05/25 09:23:11;;;;;;;4.47;2.35;;;40.20;39.30;;;;;;5055601;28;20017;-63
2022/05/25 09:25:39;;;;;;;3.58;2.30;;;40.10;38.60;;;;;;5065621;28;20025;-62
2022/05/25 09:28:15;;;;;;;5.45;2.67;;;40.30;38.40;;;;;;5075521;28;20032;-65
2022/05/25 09:30:44;;;;;;;9.32;2.70;;;40.30;37.30;;;;;;5076375;28;20017;-65
2022/05/25 09:33:19;;;;;;;3.15;2.28;;;39.50;38.30;;;;;;5062742;28;20041;-66
2022/05/25 09:35:57;;;;;;;3.20;2.15;;;38.30;38.10;;;;;;5056375;28;20079;-65
2022/05/25 09:38:43;;;;;;;2.85;1.83;;;38.30;39.10;;;;;;5071332;28;20086;-63
2022/05/25 09:41:20;;;;;;;3.97;2.30;;;39.00;39.30;;;;;;5074558;28;20028;-66
2022/05/25 09:43:46;;;;;;;3.50;2.30;;;39.30;38.10;;;;;;5072750;28;20020;-66
2022/05/25 09:46:41;;;;;;;2.78;2.50;;;39.70;41.10;;;;;;5074759;28;20370;-66
2022/05/25 09:49:23;;;;;;;4.00;2.30;;;39.80;40.80;;;;;;5070295;28;20037;-67
2022/05/25 09:51:53;;;;;;;4.65;2.75;;;39.80;39.40;;;;;;5071086;28;20025;-65
2022/05/25 09:54:39;;;;;;;4.75;2.63;;;39.90;39.80;;;;;;5071124;28;20025;-67
2022/05/25 09:57:13;;;;;;;4.78;2.60;;;40.10;39.30;;;;;;5055685;28;20683;-66
2022/05/25 09:59:49;;;;;;;5.07;2.90;;;40.00;39.80;;;;;;5051050;28;20453;-65
2022/05/25 10:02:40;;;;;;;3.58;2.50;;;40.00;39.90;;;;;;5052445;28;20025;-65
2022/05/25 10:05:17;;;;;;;3.90;2.20;;;40.00;38.60;;;;;;5008330;28;20048;-67
2022/05/25 10:08:17;;;;;;;4.32;2.80;;;40.10;38.20;;;;;;5066029;28;20032;-67
2022/05/25 10:10:55;;;;;;;6.75;3.13;;;40.10;40.10;;;;;;5037924;28;20388;-65
2022/05/25 10:13:41;;;;;;;3.30;2.38;;;40.00;41.70;;;;;;5073733;28;20028;-67
2022/05/25 10:16:30;;;;;;;5.78;2.80;;;40.20;39.90;;;;;;5072393;28;20029;-66
2022/05/25 10:19:00;;;;;;;11.70;3.60;;;40.30;38.80;;;;;;5075917;28;20044;-64
2022/05/25 10:21:29;;;;;;;6.68;2.92;;;40.40;39.20;;;;;;5090468;28;20021;-64
2022/05/25 10:23:55;;;;;;;6.60;2.78;;;40.40;40.10;;;;;;5052381;28;20502;-66
2022/05/25 10:26:48;;;;;;;7.15;3.40;;;40.40;39.90;;;;;;5068661;28;20389;-64
2022/05/25 10:38:13;;;;;;;6.28;3.33;;;40.90;39.70;;;;;;5073069;28;20035;-64
2022/05/25 10:40:44;;;;;;;7.03;3.03;;;40.80;40.00;;;;;;5074767;28;20027;-62
2022/05/25 10:43:22;;;;;;;7.53;2.90;;;40.70;39.10;;;;;;5074931;28;20020;-64
2022/05/25 10:45:52;;;;;;;4.78;2.80;;;40.60;38.10;;;;;;5073847;28;20029;-64
2022/05/25 10:48:25;;;;;;;5.00;2.70;;;40.40;39.00;;;;;;5072163;28;20029;-62
2022/05/25 10:51:02;;;;;;;4.65;2.60;;;40.70;38.90;;;;;;5071912;28;20017;-64
2022/05/25 10:53:41;;;;;;;8.60;3.17;;;40.70;36.50;;;;;;5072529;28;20024;-65
2022/05/25 10:56:22;;;;;;;4.80;3.08;;;40.30;35.90;;;;;;5070509;28;20117;-64
2022/05/25 10:59:00;;;;;;;5.90;3.10;;;40.10;37.50;;;;;;5071274;28;20063;-63
2022/05/25 11:01:40;;;;;;;5.78;3.25;;;40.20;39.30;;;;;;5073024;28;20263;-62
2022/05/25 11:04:21;;;;;;;5.68;2.58;;;40.40;37.00;;;;;;5072466;28;20020;-62
2022/05/25 11:07:10;;;;;;;7.82;2.65;;;40.20;38.00;;;;;;5073179;28;20028;-63
2022/05/25 11:09:48;;;;;;;4.68;2.35;;;40.00;37.70;;;;;;5055423;28;20090;-62
2022/05/25 11:12:17;;;;;;;8.43;2.90;;;40.00;38.60;;;;;;5073616;28;20548;-63
2022/05/25 11:15:07;;;;;;;6.97;2.88;;;40.10;38.80;;;;;;5073245;28;20103;-61
2022/05/25 11:18:01;;;;;;;4.82;2.22;;;40.00;37.50;;;;;;5073006;28;20146;-63
2022/05/25 11:21:01;;;;;;;5.53;1.98;;;40.20;38.20;;;;;;5074402;28;20029;-61
2022/05/25 11:24:01;;;;;;;3.78;2.50;;;40.30;37.10;;;;;;5074177;28;20121;-62
2022/05/25 11:26:47;;;;;;;5.28;2.50;;;40.20;35.90;;;;;;5072601;28;20051;-63
2022/05/25 11:29:38;;;;;;;3.83;2.38;;;40.00;37.60;;;;;;5071408;28;20079;-63
2022/05/25 11:32:51;;;;;;;5.43;2.60;;;40.20;37.50;;;;;;5071994;28;20044;-64
2022/05/25 11:35:29;;;;;;;5.03;2.38;;;40.60;39.90;;;;;;4969751;28;20065;-63
2022/05/25 11:38:17;;;;;;;3.63;2.17;;;40.90;39.50;;;;;;4971133;28;20026;-62
2022/05/25 11:41:01;;;;;;;5.97;2.35;;;40.90;36.90;;;;;;5047857;28;20044;-63
2022/05/25 11:43:54;;;;;;;8.60;2.58;;;40.90;39.00;;;;;;5073395;28;20356;-64
2022/05/25 11:46:26;;;;;;;6.63;2.85;;;40.80;36.70;;;;;;5067286;28;20028;-63
2022/05/25 11:49:21;;;;;;;5.00;2.67;;;40.80;36.30;;;;;;5055622;28;20044;-61
2022/05/25 11:52:17;;;;;;;3.95;2.55;;;40.80;35.30;;;;;;5060328;28;20424;-61
2022/05/25 11:54:47;;;;;;;5.22;2.75;;;41.10;34.70;;;;;;5052789;28;20017;-62
2022/05/25 11:57:51;;;;;;;6.28;3.00;;;40.80;36.90;;;;;;5052372;28;20021;-61
2022/05/25 12:00:31;;;;;;;7.00;3.03;;;40.60;35.00;;;;;;4950829;29;20047;-62
2022/05/25 12:03:09;;;;;;;4.82;3.00;;;40.00;36.60;;;;;;4950089;29;20101;-62
2022/05/25 12:06:06;;;;;;;8.40;3.85;;;40.10;38.70;;;;;;5016439;28;20422;-61
2022/05/25 12:08:45;;;;;;;11.02;4.47;;;40.10;36.70;;;;;;5049912;28;20024;-63
2022/05/25 12:11:15;;;;;;;11.65;5.03;;;40.10;37.70;;;;;;5065244;28;20422;-62
2022/05/25 12:13:54;;;;;;;11.40;5.45;;;40.00;37.00;;;;;;5064745;28;20028;-63
2022/05/25 12:16:29;;;;;;;7.93;4.50;;;40.00;36.60;;;;;;5068475;28;20512;-63
2022/05/25 12:19:05;;;;;;;7.30;4.15;;;40.40;37.30;;;;;;5069397;28;20143;-61
2022/05/25 12:21:36;;;;;;;9.77;4.35;;;40.40;36.90;;;;;;5070118;28;20063;-61
2022/05/25 12:24:11;;;;;;;8.43;4.00;;;40.20;37.30;;;;;;5070456;28;20049;-60
2022/05/25 12:26:38;;;;;;;6.00;3.40;;;40.20;37.90;;;;;;5069787;28;20039;-61
2022/05/25 12:29:34;;;;;;;7.55;2.75;;;40.20;37.10;;;;;;5070681;28;20063;-62
2022/05/25 12:32:00;;;;;;;5.88;2.90;;;40.40;38.40;;;;;;5071110;28;20520;-63
2022/05/25 12:34:35;;;;;;;7.53;3.25;;;40.70;38.30;;;;;;5070575;28;20107;-64
2022/05/25 12:37:03;;;;;;;12.07;3.65;;;40.40;34.60;;;;;;5069366;28;20031;-63
2022/05/25 12:39:47;;;;;;;5.45;3.25;;;40.10;36.20;;;;;;5069875;28;20041;-63
2022/05/25 12:42:25;;;;;;;7.03;3.00;;;39.70;36.10;;;;;;5070160;28;20021;-61
2022/05/25 12:50:48;;;;;;;6.70;3.22;;;39.60;38.00;;;;;;5072462;28;20433;-63
2022/05/25 12:53:16;;;;;;;4.45;3.03;;;39.70;36.90;;;;;;5073093;28;20020;-62
2022/05/25 12:55:43;;;;;;;6.22;2.90;;;39.90;37.20;;;;;;5073076;28;20025;-63
2022/05/25 12:58:09;;;;;;;10.38;3.92;;;39.90;36.80;;;;;;5072484;28;20111;-61
2022/05/25 13:00:41;;;;;;;5.95;3.55;;;40.10;36.50;;;;;;5072853;28;20115;-61
2022/05/25 13:03:35;;;;;;;4.68;2.70;;;39.90;36.20;;;;;;5072999;28;20023;-61
2022/05/25 13:06:02;;;;;;;5.43;3.63;;;40.00;35.70;;;;;;5069374;28;20054;-61
2022/05/25 13:08:46;;;;;;;6.22;3.08;;;40.20;36.30;;;;;;5072865;28;20027;-62
2022/05/25 13:11:38;;;;;;;5.72;3.15;;;40.10;35.60;;;;;;5073168;28;20124;-61
2022/05/25 13:14:22;;;;;;;5.75;3.28;;;39.60;37.80;;;;;;5073145;28;20382;-60
2022/05/25 13:16:56;;;;;;;5.30;3.05;;;39.60;37.80;;;;;;5072947;28;20081;-62
2022/05/25 13:19:33;;;;;;;6.88;3.13;;;39.90;37.00;;;;;;5072780;28;20020;-62
2022/05/25 13:22:02;;;;;;;4.28;2.78;;;40.00;36.50;;;;;;5072642;28;20505;-63
2022/05/25 13:24:46;;;;;;;6.18;3.72;;;39.70;36.20;;;;;;5072660;28;20099;-63
2022/05/25 13:27:15;;;;;;;4.60;2.83;;;39.30;37.50;;;;;;5072804;28;20604;-63
2022/05/25 13:30:07;;;;;;;4.30;2.70;;;39.20;37.70;;;;;;5072923;28;20028;-62
2022/05/25 13:32:54;;;;;;;5.38;2.70;;;39.20;37.70;;;;;;5073029;28;20444;-62
2022/05/25 13:35:20;;;;;;;5.80;3.20;;;39.50;36.80;;;;;;5072562;28;20021;-62
2022/05/25 13:38:07;;;;;;;6.18;2.50;;;39.60;35.80;;;;;;5072708;28;20104;-61
2022/05/25 13:41:01;;;;;;;4.53;2.65;;;39.60;37.30;;;;;;5073095;28;20031;-62
2022/05/25 13:43:52;;;;;;;4.03;2.72;;;38.90;38.10;;;;;;5033498;28;20116;-63